Time;durP1;ratioP1;P1;durP2;ratioP2;P2;SDS_P1;SDS_P2;PMS_P1;PMS_P2;Temp;Humidity;BMP_temperature;BMP_pressure;BME280_temperature;BME280_humidity;BME280_pressure;Samples;Min_cycle;Max_cycle;Signal;HPM_P1;HPM_P2
2023/02/23 00:01:26;;;;;;;6.53;5.93;;;;;;;;;;5073035;28;20675;-85
2023/02/23 00:03:56;;;;;;;6.50;5.90;;;;;;;;;;5072940;28;20207;-85
2023/02/23 00:06:24;;;;;;;6.45;5.70;;;;;;;;;;5072921;28;20226;-85
2023/02/23 00:08:54;;;;;;;7.00;5.30;;;;;;;;;;5072940;28;20201;-84
2023/02/23 00:11:22;;;;;;;5.32;4.82;;;;;;;;;;5072652;28;20197;-85
2023/02/23 00:13:51;;;;;;;5.82;5.10;;;;;;;;;;5072393;28;20200;-85
2023/02/23 00:16:21;;;;;;;7.15;6.45;;;;;;;;;;5071939;28;20300;-84
2023/02/23 00:18:52;;;;;;;8.10;7.13;;;;;;;;;;5072264;28;20184;-85
2023/02/23 00:21:21;;;;;;;9.55;7.88;;;;;;;;;;5072835;28;20375;-85
2023/02/23 00:23:54;;;;;;;7.10;6.38;;;;;;;;;;5072159;28;20197;-85
2023/02/23 00:26:23;;;;;;;5.45;4.95;;;;;;;;;;5072324;28;20263;-85
2023/02/23 00:28:53;;;;;;;5.35;4.85;;;;;;;;;;5072127;28;20654;-86
2023/02/23 00:31:24;;;;;;;5.47;5.00;;;;;;;;;;5072462;28;20241;-85
2023/02/23 00:33:53;;;;;;;8.02;6.88;;;;;;;;;;5072351;28;20193;-85
2023/02/23 00:36:23;;;;;;;6.68;6.05;;;;;;;;;;5072154;28;20581;-85
2023/02/23 00:38:56;;;;;;;5.25;4.75;;;;;;;;;;5071914;28;20199;-85
2023/02/23 00:41:27;;;;;;;5.63;5.05;;;;;;;;;;5072244;28;20205;-85
2023/02/23 00:43:55;;;;;;;7.28;6.55;;;;;;;;;;5072108;28;20209;-84
2023/02/23 00:46:26;;;;;;;6.25;5.70;;;;;;;;;;5071865;28;20286;-85
2023/02/23 00:48:55;;;;;;;7.72;7.03;;;;;;;;;;5071971;28;20187;-85
2023/02/23 00:51:23;;;;;;;6.68;5.97;;;;;;;;;;5071787;28;20204;-85
2023/02/23 00:53:56;;;;;;;5.38;4.88;;;;;;;;;;5072023;28;20181;-84
2023/02/23 00:56:24;;;;;;;6.38;5.78;;;;;;;;;;5071660;28;20216;-85
2023/02/23 00:58:51;;;;;;;7.10;5.75;;;;;;;;;;5071795;28;20266;-85
2023/02/23 01:01:19;;;;;;;8.65;7.13;;;;;;;;;;5071453;28;20292;-85
2023/02/23 01:03:47;;;;;;;7.43;6.72;;;;;;;;;;5071328;28;20256;-85
2023/02/23 01:06:16;;;;;;;6.40;5.90;;;;;;;;;;5071416;28;20217;-85
2023/02/23 01:08:47;;;;;;;8.25;6.43;;;;;;;;;;5071708;28;20683;-84
2023/02/23 01:11:19;;;;;;;7.50;6.53;;;;;;;;;;5071735;28;20193;-84
2023/02/23 01:13:49;;;;;;;5.78;5.20;;;;;;;;;;5071380;28;20211;-84
2023/02/23 01:16:19;;;;;;;7.95;7.25;;;;;;;;;;5071331;28;20266;-85
2023/02/23 01:18:48;;;;;;;7.75;7.03;;;;;;;;;;5071441;28;20189;-85
2023/02/23 01:21:18;;;;;;;7.15;6.40;;;;;;;;;;5071671;28;20201;-85
2023/02/23 01:23:46;;;;;;;9.07;8.18;;;;;;;;;;5071395;28;20629;-84
2023/02/23 01:26:23;;;;;;;8.43;7.18;;;;;;;;;;5071118;28;20263;-84
2023/02/23 01:28:52;;;;;;;8.70;7.82;;;;;;;;;;5070981;28;20197;-86
2023/02/23 01:31:20;;;;;;;10.80;7.63;;;;;;;;;;5071586;28;20201;-85
2023/02/23 01:33:48;;;;;;;9.02;7.82;;;;;;;;;;5071228;28;20209;-84
2023/02/23 01:36:16;;;;;;;11.82;9.02;;;;;;;;;;5071041;28;20221;-83
2023/02/23 01:38:45;;;;;;;10.45;9.35;;;;;;;;;;5071306;28;20661;-85
2023/02/23 01:41:12;;;;;;;8.98;7.15;;;;;;;;;;5071415;28;20628;-85
2023/02/23 01:46:37;;;;;;;5.97;4.95;;;;;;;;;;5109319;27;20634;-87
2023/02/23 01:49:05;;;;;;;5.88;4.75;;;;;;;;;;5109680;28;20608;-85
2023/02/23 01:51:37;;;;;;;4.00;3.70;;;;;;;;;;5109514;28;20291;-86
2023/02/23 01:54:13;;;;;;;5.97;5.38;;;;;;;;;;5109184;28;20216;-86
2023/02/23 01:56:44;;;;;;;6.07;5.47;;;;;;;;;;5109405;28;20223;-85
2023/02/23 01:59:14;;;;;;;5.68;4.97;;;;;;;;;;5109128;28;20222;-85
2023/02/23 02:01:44;;;;;;;11.15;8.50;;;;;;;;;;5109095;28;20206;-86
2023/02/23 02:04:15;;;;;;;11.35;8.13;;;;;;;;;;5109554;28;20249;-85
2023/02/23 02:06:45;;;;;;;11.90;10.65;;;;;;;;;;5109171;28;20226;-85
2023/02/23 02:09:16;;;;;;;12.07;10.70;;;;;;;;;;5109181;28;20199;-86
2023/02/23 02:11:45;;;;;;;11.82;9.88;;;;;;;;;;5108819;28;20181;-86
2023/02/23 02:14:15;;;;;;;12.63;11.32;;;;;;;;;;5108888;28;20224;-85
2023/02/23 02:17:01;;;;;;;12.10;10.48;;;;;;;;;;5108889;28;20314;-85
2023/02/23 02:20:25;;;;;;;12.43;11.13;;;;;;;;;;5108887;28;20195;-86
2023/02/23 02:24:00;;;;;;;12.30;10.13;;;;;;;;;;5108953;28;20624;-85
2023/02/23 02:26:38;;;;;;;13.38;10.90;;;;;;;;;;5029992;28;20613;-84
2023/02/23 02:29:41;;;;;;;13.57;11.60;;;;;;;;;;5108832;28;20187;-86
2023/02/23 02:33:09;;;;;;;14.65;11.85;;;;;;;;;;5108722;28;20184;-85
2023/02/23 02:36:20;;;;;;;14.52;10.73;;;;;;;;;;5045402;28;20251;-86
2023/02/23 02:38:55;;;;;;;8.93;6.72;;;;;;;;;;5108492;28;20192;-85
2023/02/23 02:41:35;;;;;;;8.60;7.05;;;;;;;;;;5108543;28;20194;-86
2023/02/23 02:44:11;;;;;;;9.80;7.85;;;;;;;;;;5108275;28;20206;-86
2023/02/23 02:46:41;;;;;;;6.72;6.03;;;;;;;;;;5108211;28;20698;-85
2023/02/23 02:49:16;;;;;;;10.13;9.00;;;;;;;;;;5108326;28;20640;-86
2023/02/23 02:51:48;;;;;;;10.98;8.85;;;;;;;;;;5108438;28;20187;-85
2023/02/23 02:54:25;;;;;;;8.23;7.07;;;;;;;;;;5107941;28;20207;-85
2023/02/23 02:56:56;;;;;;;7.68;6.70;;;;;;;;;;5100321;28;20220;-84
2023/02/23 04:18:19;;;;;;;4.95;4.45;;;;;;;;;;5013510;28;20691;-84
2023/02/23 04:20:46;;;;;;;6.38;5.05;;;;;;;;;;5014094;28;20203;-84
2023/02/23 04:23:14;;;;;;;5.60;5.00;;;;;;;;;;5014347;28;20199;-84
2023/02/23 04:25:41;;;;;;;4.85;4.35;;;;;;;;;;5014234;28;20346;-83
2023/02/23 04:28:09;;;;;;;5.97;5.38;;;;;;;;;;5013623;28;20877;-84
2023/02/23 04:30:37;;;;;;;7.85;6.90;;;;;;;;;;5012203;28;20203;-84
2023/02/23 04:33:04;;;;;;;9.77;7.45;;;;;;;;;;5013764;28;20302;-85
2023/02/23 04:35:33;;;;;;;7.88;7.05;;;;;;;;;;5013510;28;20293;-85
2023/02/23 04:38:01;;;;;;;6.78;6.15;;;;;;;;;;5015929;28;20597;-85
2023/02/23 04:40:29;;;;;;;8.45;7.55;;;;;;;;;;5034472;28;20289;-87
2023/02/23 04:42:57;;;;;;;9.43;7.07;;;;;;;;;;5038917;28;20283;-86
2023/02/23 04:45:25;;;;;;;8.27;7.55;;;;;;;;;;5039481;28;20248;-85
2023/02/23 04:47:52;;;;;;;8.10;7.30;;;;;;;;;;5038824;28;20237;-86
2023/02/23 04:50:21;;;;;;;9.05;7.70;;;;;;;;;;5039948;28;20194;-86
2023/02/23 04:52:52;;;;;;;6.95;6.10;;;;;;;;;;5040068;28;20202;-86
2023/02/23 04:55:22;;;;;;;6.03;5.20;;;;;;;;;;5039507;28;20187;-86
2023/02/23 04:57:50;;;;;;;5.32;4.82;;;;;;;;;;5038621;28;20674;-84
2023/02/23 05:00:18;;;;;;;5.80;5.28;;;;;;;;;;5038100;28;20230;-86
2023/02/23 05:02:46;;;;;;;10.02;7.07;;;;;;;;;;5039452;28;20230;-86
2023/02/23 05:05:14;;;;;;;8.48;6.80;;;;;;;;;;5039031;28;20679;-85
2023/02/23 05:07:41;;;;;;;7.32;6.63;;;;;;;;;;5038801;28;20218;-86
2023/02/23 05:10:12;;;;;;;7.43;6.55;;;;;;;;;;5038899;28;20218;-85
2023/02/23 05:12:39;;;;;;;6.80;5.75;;;;;;;;;;5039145;28;20670;-85
2023/02/23 05:15:09;;;;;;;7.30;6.63;;;;;;;;;;5039130;28;20218;-85
2023/02/23 05:17:41;;;;;;;7.00;6.30;;;;;;;;;;5038108;28;20683;-85
2023/02/23 05:20:10;;;;;;;7.80;6.88;;;;;;;;;;5037178;28;20202;-85
2023/02/23 05:22:38;;;;;;;6.15;5.60;;;;;;;;;;5037584;28;20289;-87
2023/02/23 05:25:07;;;;;;;7.43;6.00;;;;;;;;;;5038102;28;20213;-86
2023/02/23 05:27:36;;;;;;;8.70;5.95;;;;;;;;;;5037844;28;20245;-87
2023/02/23 05:30:06;;;;;;;6.28;5.43;;;;;;;;;;5036957;28;20198;-86
2023/02/23 05:32:34;;;;;;;6.85;6.25;;;;;;;;;;5039762;28;20202;-87
2023/02/23 05:35:01;;;;;;;5.82;5.25;;;;;;;;;;5038079;28;20233;-86
2023/02/23 05:37:29;;;;;;;6.95;6.25;;;;;;;;;;5039457;28;20254;-87
2023/02/23 05:39:56;;;;;;;7.45;6.72;;;;;;;;;;5038590;28;20249;-84
2023/02/23 05:42:24;;;;;;;7.28;6.30;;;;;;;;;;5042126;28;20225;-85
2023/02/23 05:44:53;;;;;;;6.15;5.55;;;;;;;;;;5041440;28;20263;-86
2023/02/23 05:47:20;;;;;;;7.28;6.57;;;;;;;;;;5040591;28;20230;-85
2023/02/23 05:49:48;;;;;;;7.22;6.35;;;;;;;;;;5039570;28;20318;-86
2023/02/23 05:52:15;;;;;;;9.73;8.70;;;;;;;;;;5040082;28;20238;-86
2023/02/23 05:54:44;;;;;;;5.47;4.95;;;;;;;;;;5040406;28;20226;-87
2023/02/23 05:57:11;;;;;;;6.50;5.90;;;;;;;;;;5040385;28;20245;-86
2023/02/23 05:59:39;;;;;;;5.10;4.60;;;;;;;;;;5040413;28;20674;-86
2023/02/23 06:02:08;;;;;;;5.00;4.50;;;;;;;;;;5040761;28;20270;-86
2023/02/23 06:04:35;;;;;;;5.82;4.72;;;;;;;;;;5040098;28;20205;-86
2023/02/23 06:07:03;;;;;;;5.00;4.47;;;;;;;;;;5040076;28;20218;-85
2023/02/23 06:09:30;;;;;;;6.93;5.07;;;;;;;;;;5040420;28;20229;-86
2023/02/23 06:11:59;;;;;;;6.97;5.90;;;;;;;;;;5041016;28;20206;-85
2023/02/23 06:14:27;;;;;;;5.13;4.70;;;;;;;;;;5039260;28;20229;-86
2023/02/23 06:16:54;;;;;;;5.63;4.93;;;;;;;;;;5039259;28;20313;-87
2023/02/23 06:19:23;;;;;;;6.32;5.70;;;;;;;;;;5039613;28;20223;-86
2023/02/23 06:21:51;;;;;;;8.35;7.32;;;;;;;;;;5040133;28;20887;-85
2023/02/23 06:24:19;;;;;;;7.90;7.10;;;;;;;;;;5039496;28;20213;-84
2023/02/23 06:26:47;;;;;;;5.60;5.10;;;;;;;;;;5039517;28;20759;-85
2023/02/23 06:29:15;;;;;;;5.65;5.15;;;;;;;;;;5040010;28;20237;-87
2023/02/23 06:31:43;;;;;;;7.30;6.55;;;;;;;;;;5041352;28;20202;-86
2023/02/23 06:34:11;;;;;;;9.43;8.20;;;;;;;;;;5044386;28;20229;-86
2023/02/23 06:36:40;;;;;;;9.48;8.48;;;;;;;;;;5043474;28;20702;-86
2023/02/23 06:39:07;;;;;;;7.90;7.10;;;;;;;;;;5043664;28;20238;-85
2023/02/23 06:41:36;;;;;;;11.88;9.77;;;;;;;;;;5045044;28;20258;-85
2023/02/23 06:44:05;;;;;;;10.00;8.95;;;;;;;;;;5044510;28;20233;-84
2023/02/23 06:46:33;;;;;;;7.53;6.82;;;;;;;;;;5043371;28;20226;-85
2023/02/23 06:49:01;;;;;;;8.40;7.05;;;;;;;;;;5043733;28;20226;-87
2023/02/23 06:51:28;;;;;;;7.03;6.32;;;;;;;;;;5043002;28;20229;-86
2023/02/23 06:53:57;;;;;;;6.38;5.80;;;;;;;;;;5043062;28;20213;-87
2023/02/23 06:56:25;;;;;;;6.30;5.70;;;;;;;;;;5043481;28;20317;-86
2023/02/23 06:58:53;;;;;;;6.82;6.22;;;;;;;;;;5043353;28;20218;-85
2023/02/23 07:01:20;;;;;;;6.30;5.68;;;;;;;;;;5043291;28;20256;-85
2023/02/23 07:03:48;;;;;;;6.97;5.78;;;;;;;;;;5043680;28;20210;-85
2023/02/23 07:06:15;;;;;;;7.68;6.97;;;;;;;;;;5043510;28;20312;-85
2023/02/23 07:08:43;;;;;;;6.90;6.22;;;;;;;;;;5036741;28;20328;-84
2023/02/23 07:11:17;;;;;;;8.07;7.28;;;;;;;;;;5040210;28;20202;-84
2023/02/23 07:13:44;;;;;;;7.97;6.53;;;;;;;;;;5041018;28;20190;-84
2023/02/23 07:16:13;;;;;;;6.20;5.60;;;;;;;;;;5040511;28;20206;-84
2023/02/23 07:18:41;;;;;;;8.48;7.57;;;;;;;;;;5041462;28;20202;-85
2023/02/23 07:21:08;;;;;;;10.15;9.15;;;;;;;;;;5042624;28;20234;-84
2023/02/23 07:23:36;;;;;;;10.35;8.85;;;;;;;;;;5039425;28;20289;-85
2023/02/23 07:26:03;;;;;;;10.38;9.35;;;;;;;;;;5039946;28;20234;-85
2023/02/23 07:28:32;;;;;;;13.05;10.07;;;;;;;;;;5040087;28;20313;-85
2023/02/23 07:30:59;;;;;;;10.88;9.18;;;;;;;;;;5040288;28;20289;-84
2023/02/23 07:33:27;;;;;;;9.95;8.38;;;;;;;;;;5045742;28;20229;-84
2023/02/23 07:35:55;;;;;;;10.55;9.45;;;;;;;;;;5060668;28;20237;-85
2023/02/23 07:38:22;;;;;;;9.63;8.30;;;;;;;;;;5058134;28;20214;-84
2023/02/23 07:40:50;;;;;;;10.73;9.68;;;;;;;;;;5060425;28;20277;-83
2023/02/23 07:43:19;;;;;;;9.57;8.68;;;;;;;;;;5060268;28;20688;-85
2023/02/23 07:45:49;;;;;;;11.70;9.32;;;;;;;;;;5044742;28;20210;-85
2023/02/23 07:48:17;;;;;;;10.90;9.73;;;;;;;;;;5039093;28;20222;-85
2023/02/23 07:50:44;;;;;;;10.93;9.82;;;;;;;;;;5041212;28;20206;-83
2023/02/23 07:53:12;;;;;;;11.00;9.65;;;;;;;;;;5039857;28;20266;-85
2023/02/23 07:55:40;;;;;;;12.15;10.15;;;;;;;;;;5037200;28;20431;-86
2023/02/23 07:58:08;;;;;;;9.95;8.98;;;;;;;;;;5039374;28;20253;-86
2023/02/23 08:00:37;;;;;;;12.85;10.30;;;;;;;;;;5040377;28;20214;-84
2023/02/23 08:03:07;;;;;;;10.57;9.48;;;;;;;;;;5040472;28;20202;-84
2023/02/23 08:05:35;;;;;;;16.95;11.57;;;;;;;;;;5040660;28;20258;-85
2023/02/23 08:08:03;;;;;;;11.90;10.63;;;;;;;;;;5039826;28;20333;-85
2023/02/23 08:10:30;;;;;;;10.50;9.23;;;;;;;;;;5040457;28;20292;-86
2023/02/23 08:12:58;;;;;;;11.93;10.52;;;;;;;;;;5040083;28;20198;-83
2023/02/23 08:15:26;;;;;;;9.77;8.88;;;;;;;;;;5040814;28;20206;-85
2023/02/23 08:17:53;;;;;;;12.32;11.02;;;;;;;;;;5040030;28;20253;-84
2023/02/23 08:20:22;;;;;;;11.63;10.25;;;;;;;;;;5040373;28;20232;-84
2023/02/23 08:22:54;;;;;;;10.07;8.93;;;;;;;;;;5040498;28;20202;-84
2023/02/23 08:25:22;;;;;;;8.00;7.18;;;;;;;;;;5040970;28;20265;-85
2023/02/23 08:27:52;;;;;;;8.23;7.45;;;;;;;;;;5040246;28;20678;-84
2023/02/23 08:30:20;;;;;;;9.55;6.97;;;;;;;;;;5040604;28;20222;-84
2023/02/23 08:32:49;;;;;;;5.97;5.32;;;;;;;;;;5040537;28;20230;-84
2023/02/23 08:35:17;;;;;;;6.28;5.65;;;;;;;;;;5040502;28;20655;-84
2023/02/23 08:37:46;;;;;;;8.75;7.85;;;;;;;;;;5040271;28;20226;-84
2023/02/23 08:40:17;;;;;;;9.52;8.43;;;;;;;;;;5040427;28;20198;-83
2023/02/23 08:42:44;;;;;;;6.88;6.20;;;;;;;;;;5042535;28;20216;-84
2023/02/23 08:45:12;;;;;;;6.95;6.22;;;;;;;;;;5031078;28;20260;-84
2023/02/23 08:47:40;;;;;;;7.07;6.40;;;;;;;;;;5019593;28;20274;-83
2023/02/23 08:50:09;;;;;;;8.38;7.47;;;;;;;;;;5018592;28;20751;-84
2023/02/23 08:52:37;;;;;;;6.63;5.65;;;;;;;;;;5020281;28;20223;-83
2023/02/23 08:55:07;;;;;;;9.45;7.13;;;;;;;;;;5018653;28;20194;-86
2023/02/23 08:57:35;;;;;;;7.70;7.00;;;;;;;;;;5015385;28;20218;-85
2023/02/23 09:00:05;;;;;;;7.75;7.07;;;;;;;;;;5017030;28;20570;-84
2023/02/23 09:02:32;;;;;;;9.25;8.30;;;;;;;;;;5016123;28;20202;-84
2023/02/23 09:05:00;;;;;;;10.32;7.65;;;;;;;;;;5016493;28;20564;-85
2023/02/23 09:07:27;;;;;;;7.38;6.57;;;;;;;;;;5016286;28;20642;-86
2023/02/23 09:09:55;;;;;;;9.32;7.95;;;;;;;;;;5015910;28;20227;-85
2023/02/23 09:12:25;;;;;;;9.18;8.27;;;;;;;;;;5017454;28;20233;-84
2023/02/23 09:14:52;;;;;;;13.10;10.38;;;;;;;;;;5023894;28;20631;-85
2023/02/23 09:17:21;;;;;;;11.18;9.88;;;;;;;;;;5037724;28;20234;-83
2023/02/23 09:19:49;;;;;;;9.25;8.35;;;;;;;;;;5036677;28;20202;-84
2023/02/23 09:22:17;;;;;;;8.65;7.70;;;;;;;;;;5038821;28;20256;-84
2023/02/23 09:24:45;;;;;;;8.65;7.85;;;;;;;;;;5039019;28;20206;-84
2023/02/23 09:27:13;;;;;;;7.85;6.97;;;;;;;;;;5041226;28;20226;-84
2023/02/23 09:29:43;;;;;;;9.07;8.07;;;;;;;;;;5040214;28;20292;-84
2023/02/23 09:32:10;;;;;;;8.13;7.40;;;;;;;;;;5040157;28;20289;-84
2023/02/23 09:34:38;;;;;;;8.85;7.95;;;;;;;;;;5039680;28;20266;-83
2023/02/23 09:37:06;;;;;;;7.05;6.35;;;;;;;;;;5039961;28;20881;-84
2023/02/23 09:39:33;;;;;;;7.38;6.72;;;;;;;;;;5039553;28;20287;-83
2023/02/23 09:42:20;;;;;;;8.23;7.43;;;;;;;;;;5040043;28;20225;-83
2023/02/23 09:45:12;;;;;;;7.68;6.97;;;;;;;;;;5040316;28;20727;-84
2023/02/23 09:47:55;;;;;;;13.88;11.20;;;;;;;;;;5039824;28;20249;-85
2023/02/23 09:50:27;;;;;;;16.65;14.43;;;;;;;;;;5038487;28;20734;-85
2023/02/23 09:52:58;;;;;;;14.68;11.63;;;;;;;;;;5039649;28;20634;-85
2023/02/23 09:55:27;;;;;;;12.43;11.13;;;;;;;;;;5039218;28;20186;-85
2023/02/23 09:57:55;;;;;;;14.65;13.13;;;;;;;;;;5039756;28;20309;-85
2023/02/23 10:00:26;;;;;;;10.57;9.10;;;;;;;;;;5039101;28;20291;-85
2023/02/23 10:03:13;;;;;;;10.15;8.68;;;;;;;;;;5039376;28;20186;-85
2023/02/23 10:05:44;;;;;;;14.20;12.80;;;;;;;;;;5039517;28;20641;-85
2023/02/23 10:08:38;;;;;;;13.05;11.57;;;;;;;;;;5042957;28;20264;-86
2023/02/23 10:11:12;;;;;;;17.25;14.07;;;;;;;;;;5043057;28;20202;-86
2023/02/23 10:13:47;;;;;;;14.70;10.13;;;;;;;;;;5043020;28;20250;-87
2023/02/23 10:16:21;;;;;;;15.43;13.07;;;;;;;;;;5042709;28;20333;-85
2023/02/23 10:18:55;;;;;;;16.75;14.77;;;;;;;;;;5043042;28;20194;-86
2023/02/23 10:21:34;;;;;;;16.33;13.60;;;;;;;;;;5043376;28;20190;-86
2023/02/23 10:24:04;;;;;;;17.88;16.00;;;;;;;;;;5043842;28;20208;-87
2023/02/23 10:26:38;;;;;;;15.55;12.00;;;;;;;;;;5044043;28;20231;-88
2023/02/23 10:29:23;;;;;;;11.65;10.32;;;;;;;;;;5043973;28;20710;-85
2023/02/23 10:31:56;;;;;;;9.15;7.82;;;;;;;;;;5043994;28;20206;-87
2023/02/23 10:34:24;;;;;;;8.02;7.20;;;;;;;;;;5044160;28;20191;-85
2023/02/23 10:36:58;;;;;;;11.00;10.00;;;;;;;;;;5043204;28;20226;-86
2023/02/23 10:39:26;;;;;;;9.23;8.23;;;;;;;;;;5043457;28;20632;-84
2023/02/23 10:41:54;;;;;;;11.13;9.32;;;;;;;;;;5042615;28;20292;-84
2023/02/23 10:44:24;;;;;;;12.45;10.65;;;;;;;;;;5037642;28;20664;-87
2023/02/23 10:46:57;;;;;;;10.40;9.38;;;;;;;;;;5037505;28;20229;-86
2023/02/23 10:49:32;;;;;;;10.38;9.38;;;;;;;;;;5037519;28;20213;-84
2023/02/23 10:52:01;;;;;;;10.68;9.68;;;;;;;;;;5038991;28;20285;-84
2023/02/23 10:54:46;;;;;;;13.43;12.07;;;;;;;;;;5039696;28;20198;-84
2023/02/23 10:57:21;;;;;;;12.15;10.43;;;;;;;;;;5036910;28;20249;-84
2023/02/23 11:00:31;;;;;;;12.75;11.45;;;;;;;;;;5037485;28;20194;-84
2023/02/23 11:03:03;;;;;;;11.65;10.50;;;;;;;;;;5037949;28;20206;-86
2023/02/23 11:05:44;;;;;;;11.88;9.85;;;;;;;;;;5038519;28;20252;-84
2023/02/23 11:08:31;;;;;;;18.38;16.05;;;;;;;;;;5036935;28;20234;-86
2023/02/23 11:11:09;;;;;;;14.50;12.98;;;;;;;;;;5037254;28;20225;-85
2023/02/23 11:13:40;;;;;;;11.75;10.45;;;;;;;;;;5037019;28;20292;-86
2023/02/23 11:16:11;;;;;;;13.18;9.93;;;;;;;;;;5036778;28;20183;-86
2023/02/23 11:18:44;;;;;;;12.70;10.32;;;;;;;;;;5036873;28;20281;-88
2023/02/23 11:21:21;;;;;;;10.82;9.70;;;;;;;;;;5038292;28;20568;-87
2023/02/23 11:23:52;;;;;;;10.60;9.60;;;;;;;;;;5036445;28;20212;-87
2023/02/23 11:26:31;;;;;;;14.10;12.70;;;;;;;;;;5035854;28;20317;-87
2023/02/23 11:29:04;;;;;;;13.25;11.30;;;;;;;;;;5035915;28;20449;-87
2023/02/23 11:31:34;;;;;;;12.85;11.45;;;;;;;;;;5035818;28;20238;-86
2023/02/23 11:34:05;;;;;;;9.73;8.73;;;;;;;;;;5036610;28;20205;-87
2023/02/23 11:36:35;;;;;;;11.63;10.45;;;;;;;;;;5037453;28;20673;-87
2023/02/23 11:39:09;;;;;;;10.60;8.63;;;;;;;;;;5037520;28;20234;-87
2023/02/23 11:41:37;;;;;;;15.45;13.27;;;;;;;;;;5039671;28;20236;-87
2023/02/23 11:44:05;;;;;;;13.20;11.85;;;;;;;;;;5039324;28;20208;-88
2023/02/23 11:46:38;;;;;;;12.80;11.50;;;;;;;;;;5019802;28;20318;-87
2023/02/23 11:49:09;;;;;;;10.23;9.13;;;;;;;;;;5021466;28;20270;-87
2023/02/23 11:51:38;;;;;;;13.38;11.48;;;;;;;;;;5017580;28;20330;-87
2023/02/23 11:54:09;;;;;;;11.50;10.38;;;;;;;;;;5016809;28;20230;-86
2023/02/23 11:56:37;;;;;;;14.32;12.40;;;;;;;;;;5016567;28;20306;-86
2023/02/23 11:59:07;;;;;;;10.85;9.05;;;;;;;;;;5015943;28;20203;-87
2023/02/23 12:01:44;;;;;;;14.07;11.88;;;;;;;;;;5017823;28;20222;-88
2023/02/23 12:04:29;;;;;;;11.52;10.13;;;;;;;;;;5017482;28;20654;-87
2023/02/23 12:07:21;;;;;;;9.43;7.93;;;;;;;;;;5017167;28;20227;-87
2023/02/23 12:09:56;;;;;;;7.93;7.13;;;;;;;;;;5015363;28;20542;-87
2023/02/23 12:12:25;;;;;;;11.70;10.43;;;;;;;;;;5016125;28;20223;-86
2023/02/23 12:14:57;;;;;;;10.32;9.13;;;;;;;;;;5023546;28;20662;-87
2023/02/23 12:17:28;;;;;;;11.45;9.93;;;;;;;;;;5035531;28;20761;-88
2023/02/23 12:20:00;;;;;;;10.18;8.50;;;;;;;;;;5034833;28;20205;-87
2023/02/23 12:22:32;;;;;;;12.95;11.65;;;;;;;;;;5035498;28;20558;-87
2023/02/23 12:25:04;;;;;;;11.52;10.38;;;;;;;;;;5035952;28;20808;-87
2023/02/23 12:27:37;;;;;;;15.35;13.75;;;;;;;;;;5035558;28;20262;-87
2023/02/23 12:30:15;;;;;;;11.70;10.53;;;;;;;;;;5033550;28;20203;-86
2023/02/23 12:32:50;;;;;;;10.45;9.35;;;;;;;;;;5035439;28;20646;-87
2023/02/23 12:35:22;;;;;;;16.42;12.60;;;;;;;;;;5035317;28;20221;-87
2023/02/23 12:37:55;;;;;;;14.52;12.77;;;;;;;;;;5035207;28;20569;-87
2023/02/23 12:40:27;;;;;;;10.80;9.40;;;;;;;;;;5035302;28;20222;-86
2023/02/23 12:43:02;;;;;;;10.02;8.98;;;;;;;;;;5035418;28;20545;-87
2023/02/23 12:45:37;;;;;;;10.13;8.85;;;;;;;;;;5033563;28;20209;-87
2023/02/23 12:48:14;;;;;;;9.60;8.68;;;;;;;;;;5034433;28;20295;-87
2023/02/23 12:50:49;;;;;;;11.15;10.07;;;;;;;;;;5034624;28;20202;-86
2023/02/23 12:53:22;;;;;;;18.80;15.43;;;;;;;;;;5034014;28;20260;-87
2023/02/23 12:56:12;;;;;;;14.20;11.20;;;;;;;;;;5033955;28;20314;-87
2023/02/23 12:58:44;;;;;;;9.75;8.75;;;;;;;;;;5033764;28;20213;-86
2023/02/23 13:01:15;;;;;;;9.05;8.25;;;;;;;;;;5033546;28;20205;-87
2023/02/23 13:04:13;;;;;;;7.88;7.07;;;;;;;;;;5033087;28;20651;-86
2023/02/23 13:06:52;;;;;;;6.53;5.90;;;;;;;;;;5028697;28;20222;-87
2023/02/23 13:09:32;;;;;;;8.35;7.47;;;;;;;;;;5033262;28;20206;-87
2023/02/23 13:12:23;;;;;;;8.88;7.18;;;;;;;;;;5033832;28;20297;-86
2023/02/23 13:14:57;;;;;;;7.28;6.68;;;;;;;;;;5033680;28;20657;-86
2023/02/23 13:17:35;;;;;;;7.53;6.82;;;;;;;;;;5033522;28;20244;-86
2023/02/23 13:20:11;;;;;;;7.47;6.15;;;;;;;;;;5033124;28;20201;-86
2023/02/23 13:22:46;;;;;;;8.32;7.53;;;;;;;;;;5034131;28;20285;-87
2023/02/23 13:25:25;;;;;;;8.73;6.03;;;;;;;;;;5034307;28;20197;-86
2023/02/23 13:27:58;;;;;;;7.13;6.43;;;;;;;;;;5032776;28;20218;-86
2023/02/23 13:30:26;;;;;;;6.82;6.15;;;;;;;;;;5032991;28;20221;-87
2023/02/23 13:32:54;;;;;;;6.28;5.68;;;;;;;;;;5033431;28;20309;-86
2023/02/23 13:35:21;;;;;;;6.60;6.07;;;;;;;;;;5036106;28;20225;-87
2023/02/23 13:37:54;;;;;;;6.25;5.65;;;;;;;;;;5036275;28;20265;-87
2023/02/23 13:40:29;;;;;;;7.18;6.57;;;;;;;;;;5035697;28;20202;-87
2023/02/23 13:43:12;;;;;;;7.03;6.43;;;;;;;;;;5033704;28;20198;-87
2023/02/23 13:45:53;;;;;;;7.18;6.40;;;;;;;;;;5034760;28;20202;-87
2023/02/23 13:48:32;;;;;;;6.18;5.65;;;;;;;;;;5036355;28;20217;-86
2023/02/23 13:51:06;;;;;;;5.97;5.45;;;;;;;;;;5035481;28;20229;-86
2023/02/23 13:53:45;;;;;;;7.05;6.45;;;;;;;;;;5033758;28;20269;-86
2023/02/23 13:56:18;;;;;;;6.65;6.05;;;;;;;;;;5033486;28;20202;-86
2023/02/23 13:58:48;;;;;;;8.23;6.93;;;;;;;;;;5033142;28;20186;-85
2023/02/23 14:01:20;;;;;;;8.30;7.38;;;;;;;;;;5034933;28;20298;-86
2023/02/23 14:03:55;;;;;;;8.15;7.35;;;;;;;;;;5033493;28;20289;-86
2023/02/23 14:06:26;;;;;;;9.68;8.65;;;;;;;;;;5037837;28;20236;-86
2023/02/23 14:08:59;;;;;;;8.80;7.90;;;;;;;;;;5036712;28;20218;-86
2023/02/23 14:11:46;;;;;;;8.75;7.85;;;;;;;;;;5034949;28;20294;-86
2023/02/23 14:14:32;;;;;;;8.90;7.97;;;;;;;;;;5034832;28;20229;-85
2023/02/23 14:18:01;;;;;;;10.10;9.00;;;;;;;;;;5035191;28;20246;-86
2023/02/23 14:20:51;;;;;;;9.68;8.35;;;;;;;;;;4975885;28;20276;-86
2023/02/23 14:23:34;;;;;;;9.73;8.73;;;;;;;;;;4974268;28;20287;-86
2023/02/23 14:26:42;;;;;;;9.40;8.48;;;;;;;;;;5021305;28;20285;-86
2023/02/23 14:29:53;;;;;;;9.43;8.43;;;;;;;;;;5034206;28;21020;-86
2023/02/23 14:32:32;;;;;;;6.38;5.78;;;;;;;;;;5035004;28;20252;-87
2023/02/23 14:35:01;;;;;;;8.88;7.97;;;;;;;;;;5034623;28;20690;-86
2023/02/23 14:37:34;;;;;;;9.07;8.05;;;;;;;;;;5034817;28;20250;-86
2023/02/23 14:40:10;;;;;;;10.48;9.07;;;;;;;;;;5033292;28;20191;-86
2023/02/23 14:42:40;;;;;;;10.35;9.45;;;;;;;;;;5034224;28;20196;-86
2023/02/23 14:45:19;;;;;;;10.27;9.18;;;;;;;;;;5035064;28;20563;-86
2023/02/23 14:47:48;;;;;;;10.60;9.50;;;;;;;;;;5034920;28;20254;-86
2023/02/23 14:50:25;;;;;;;9.15;8.25;;;;;;;;;;5034256;28;20203;-87
2023/02/23 14:52:54;;;;;;;9.07;8.10;;;;;;;;;;5035600;28;20202;-86
2023/02/23 14:55:24;;;;;;;10.60;9.48;;;;;;;;;;5038827;28;20212;-86
2023/02/23 14:57:54;;;;;;;8.38;7.47;;;;;;;;;;5037767;28;20233;-86
2023/02/23 15:00:24;;;;;;;10.48;9.48;;;;;;;;;;5038020;28;20684;-86
2023/02/23 15:02:58;;;;;;;12.05;10.77;;;;;;;;;;5037880;28;20352;-86
2023/02/23 15:05:29;;;;;;;10.27;9.13;;;;;;;;;;5038310;28;20186;-85
2023/02/23 15:08:00;;;;;;;9.75;8.75;;;;;;;;;;5038094;28;20254;-85
2023/02/23 15:10:32;;;;;;;11.07;10.07;;;;;;;;;;5038142;28;20951;-86
2023/02/23 15:13:07;;;;;;;12.30;11.07;;;;;;;;;;5038274;28;20278;-87
2023/02/23 15:15:38;;;;;;;11.60;10.40;;;;;;;;;;5025536;28;20202;-87
2023/02/23 15:18:05;;;;;;;11.80;10.60;;;;;;;;;;5018107;28;20223;-87
2023/02/23 15:20:34;;;;;;;13.13;11.77;;;;;;;;;;5020254;28;20294;-86
2023/02/23 15:23:04;;;;;;;15.65;13.98;;;;;;;;;;5019123;28;20199;-85
2023/02/23 15:25:38;;;;;;;13.30;11.88;;;;;;;;;;5017659;28;20209;-86
2023/02/23 15:28:25;;;;;;;13.48;11.70;;;;;;;;;;5018054;28;20229;-85
2023/02/23 15:30:55;;;;;;;12.20;11.07;;;;;;;;;;5018482;28;20245;-85
2023/02/23 15:33:27;;;;;;;13.65;12.25;;;;;;;;;;5017739;28;20314;-85
2023/02/23 15:35:59;;;;;;;11.05;9.93;;;;;;;;;;5019151;28;20206;-86
2023/02/23 15:38:31;;;;;;;13.70;12.30;;;;;;;;;;5018052;28;20295;-86
2023/02/23 15:41:04;;;;;;;14.02;11.82;;;;;;;;;;5028674;28;20233;-86
2023/02/23 15:43:34;;;;;;;13.65;11.18;;;;;;;;;;5037526;28;20179;-86
2023/02/23 15:46:04;;;;;;;14.23;10.65;;;;;;;;;;5037408;28;20202;-86
2023/02/23 15:48:44;;;;;;;12.82;11.02;;;;;;;;;;5035504;28;20245;-85
2023/02/23 15:51:23;;;;;;;13.10;11.75;;;;;;;;;;5035436;28;20183;-83
2023/02/23 15:53:50;;;;;;;13.40;12.00;;;;;;;;;;5033968;28;20214;-83
2023/02/23 15:56:25;;;;;;;15.65;12.38;;;;;;;;;;5033155;28;20318;-85
2023/02/23 15:58:58;;;;;;;15.02;10.90;;;;;;;;;;5033961;28;20236;-84
2023/02/23 16:01:29;;;;;;;12.50;10.57;;;;;;;;;;5034030;28;20199;-84
2023/02/23 16:04:01;;;;;;;14.27;12.40;;;;;;;;;;5033694;28;20671;-83
2023/02/23 16:06:34;;;;;;;12.75;10.90;;;;;;;;;;5033974;28;20222;-83
2023/02/23 16:09:19;;;;;;;15.73;12.48;;;;;;;;;;5033985;28;20214;-84
2023/02/23 16:11:50;;;;;;;16.08;12.38;;;;;;;;;;5033585;28;20205;-84
2023/02/23 16:14:20;;;;;;;14.48;12.00;;;;;;;;;;5033350;28;20691;-83
2023/02/23 16:16:48;;;;;;;12.32;10.40;;;;;;;;;;5033539;28;20324;-83
2023/02/23 16:19:17;;;;;;;15.68;12.15;;;;;;;;;;5033814;28;20225;-84
2023/02/23 16:21:52;;;;;;;17.15;12.45;;;;;;;;;;5033620;28;20198;-84
2023/02/23 16:24:22;;;;;;;15.13;11.82;;;;;;;;;;5033657;28;20643;-83
2023/02/23 16:26:55;;;;;;;14.18;11.05;;;;;;;;;;5033796;28;20578;-84